Time;durP1;ratioP1;P1;durP2;ratioP2;P2;SDS_P1;SDS_P2;PMS_P1;PMS_P2;Temp;Humidity;BMP_temperature;BMP_pressure;BME280_temperature;BME280_humidity;BME280_pressure;Samples;Min_cycle;Max_cycle;Signal;HPM_P1;HPM_P2
2022/01/15 00:00:30;;;;;;;;;;;3.70;97.60;;;;;;5029852;28;20019;-69
2022/01/15 00:02:55;;;;;;;;;;;3.70;97.70;;;;;;5052756;28;19923;-69
2022/01/15 00:05:21;;;;;;;;;;;3.70;97.70;;;;;;5053688;28;19913;-68
2022/01/15 00:07:48;;;;;;;;;;;3.70;97.70;;;;;;5052118;28;20365;-69
2022/01/15 00:10:14;;;;;;;;;;;3.70;97.70;;;;;;5030303;28;19919;-69
2022/01/15 00:12:40;;;;;;;;;;;3.70;97.70;;;;;;5052735;28;19912;-68
2022/01/15 00:15:12;;;;;;;;;;;3.70;97.70;;;;;;5049381;28;19928;-69
2022/01/15 00:20:36;;;;;;;;;;;3.70;97.70;;;;;;5040163;28;19924;-68
2022/01/15 00:23:02;;;;;;;;;;;3.70;97.70;;;;;;5052455;28;19917;-69
2022/01/15 00:25:28;;;;;;;;;;;3.80;98.00;;;;;;5031618;28;19916;-69
2022/01/15 00:27:54;;;;;;;;;;;3.70;97.70;;;;;;5050216;28;20261;-69
2022/01/15 00:30:20;;;;;;;;;;;3.70;97.70;;;;;;5033498;28;19923;-68
2022/01/15 00:32:46;;;;;;;;;;;3.70;97.70;;;;;;5050099;28;19917;-68
2022/01/15 00:35:13;;;;;;;;;;;3.70;97.70;;;;;;5048223;28;19920;-69
2022/01/15 00:37:39;;;;;;;;;;;3.70;97.70;;;;;;5052453;28;19922;-68
2022/01/15 00:40:07;;;;;;;;;;;3.70;97.70;;;;;;5050014;28;20034;-68
2022/01/15 00:42:34;;;;;;;;;;;3.80;97.70;;;;;;5050113;28;19928;-68
2022/01/15 00:45:01;;;;;;;;;;;3.70;97.70;;;;;;5049709;28;19923;-69
2022/01/15 00:47:31;;;;;;;;;;;3.70;97.70;;;;;;5047134;28;20251;-69
2022/01/15 00:49:57;;;;;;;;;;;3.70;97.70;;;;;;5049950;28;19924;-69
2022/01/15 00:52:22;;;;;;;;;;;3.70;97.70;;;;;;5047671;28;20392;-69
2022/01/15 00:54:48;;;;;;;;;;;3.70;97.70;;;;;;5050616;28;19917;-68
2022/01/15 00:57:13;;;;;;;;;;;3.70;97.70;;;;;;5047554;28;19913;-68
2022/01/15 00:59:39;;;;;;;;;;;3.70;97.70;;;;;;5052901;28;20380;-69
2022/01/15 01:02:04;;;;;;;;;;;3.70;97.70;;;;;;5047059;28;19924;-69
2022/01/15 01:04:30;;;;;;;;;;;3.70;97.70;;;;;;5050198;28;19917;-69
2022/01/15 01:06:55;;;;;;;;;;;3.70;97.70;;;;;;5044412;28;19955;-69
2022/01/15 01:09:24;;;;;;;;;;;3.70;97.70;;;;;;5049544;28;19967;-69
2022/01/15 01:11:58;;;;;;;;;;;3.70;97.70;;;;;;5042524;28;20031;-69
2022/01/15 01:20:09;;;;;;;;;;;3.70;97.70;;;;;;5049656;28;19966;-68
2022/01/15 01:22:57;;;;;;;;;;;3.70;97.70;;;;;;5048664;28;20306;-68
2022/01/15 01:25:26;;;;;;;;;;;3.70;97.70;;;;;;5049641;28;19920;-68
2022/01/15 01:27:56;;;;;;;;;;;3.70;97.70;;;;;;5048328;28;20841;-68
2022/01/15 01:30:26;;;;;;;;;;;3.70;97.70;;;;;;5049135;28;19966;-68
2022/01/15 01:33:03;;;;;;;;;;;3.80;97.70;;;;;;5046763;28;20332;-68
2022/01/15 01:35:40;;;;;;;;;;;3.70;97.70;;;;;;5031600;28;19987;-68
2022/01/15 01:38:25;;;;;;;;;;;3.70;97.70;;;;;;5047272;28;19932;-68
2022/01/15 01:40:51;;;;;;;;;;;3.70;97.70;;;;;;5052319;28;19932;-68
2022/01/15 01:45:50;;;;;;;;;;;3.70;97.70;;;;;;5050053;28;20090;-68
2022/01/15 01:48:15;;;;;;;;;;;3.70;97.70;;;;;;5045863;28;19917;-68
2022/01/15 01:50:41;;;;;;;;;;;3.70;97.70;;;;;;5046979;28;20321;-69
2022/01/15 01:53:07;;;;;;;;;;;3.70;97.70;;;;;;5047861;28;19939;-69
2022/01/15 01:55:33;;;;;;;;;;;3.70;97.70;;;;;;5049804;28;20385;-69
2022/01/15 01:57:58;;;;;;;;;;;3.70;97.70;;;;;;5049771;28;19917;-68
2022/01/15 02:00:25;;;;;;;;;;;3.70;97.70;;;;;;5045175;28;19932;-68
2022/01/15 02:02:51;;;;;;;;;;;3.70;97.70;;;;;;5048942;28;19913;-69
2022/01/15 02:05:17;;;;;;;;;;;3.80;97.80;;;;;;5046621;28;19912;-69
2022/01/15 02:07:43;;;;;;;;;;;3.70;97.70;;;;;;5050731;28;19916;-69
2022/01/15 02:10:11;;;;;;;;;;;3.70;97.70;;;;;;5047107;28;19913;-68
2022/01/15 02:12:37;;;;;;;;;;;3.70;97.70;;;;;;5047715;28;19913;-68
2022/01/15 02:15:06;;;;;;;;;;;3.70;97.70;;;;;;5047252;28;19920;-69
2022/01/15 02:17:32;;;;;;;;;;;3.80;97.80;;;;;;5047752;28;20005;-69
2022/01/15 02:20:21;;;;;;;;;;;3.80;97.80;;;;;;5046865;28;20372;-68
2022/01/15 02:25:45;;;;;;;;;;;3.70;97.70;;;;;;5046094;28;19924;-68
2022/01/15 02:28:10;;;;;;;;;;;3.70;97.70;;;;;;5028817;28;19916;-68
2022/01/15 02:30:36;;;;;;;;;;;3.70;97.80;;;;;;5029802;28;20281;-69
2022/01/15 02:33:02;;;;;;;;;;;3.70;97.70;;;;;;5047383;28;20050;-68
2022/01/15 02:35:28;;;;;;;;;;;3.70;97.80;;;;;;5046420;28;19917;-69
2022/01/15 02:37:53;;;;;;;;;;;3.70;97.80;;;;;;5049656;28;19999;-69
2022/01/15 02:40:19;;;;;;;;;;;3.70;97.80;;;;;;5043859;28;20430;-69
2022/01/15 02:42:44;;;;;;;;;;;3.70;97.80;;;;;;5049559;28;19917;-69
2022/01/15 02:45:11;;;;;;;;;;;3.70;97.80;;;;;;5045844;28;19950;-68
2022/01/15 02:50:21;;;;;;;;;;;3.70;97.80;;;;;;5045473;28;21067;-69
2022/01/15 02:52:48;;;;;;;;;;;3.70;97.80;;;;;;5049216;28;19995;-68
2022/01/15 02:55:13;;;;;;;;;;;3.70;97.80;;;;;;5048143;28;19909;-68
2022/01/15 02:57:39;;;;;;;;;;;3.70;97.80;;;;;;5046251;28;19920;-69
2022/01/15 03:00:05;;;;;;;;;;;3.80;97.80;;;;;;5048933;28;19920;-68
2022/01/15 03:02:32;;;;;;;;;;;3.80;97.80;;;;;;5046767;28;20769;-68
2022/01/15 03:04:58;;;;;;;;;;;3.80;97.80;;;;;;5048801;28;20330;-68
2022/01/15 03:07:23;;;;;;;;;;;3.70;97.80;;;;;;5045875;28;19920;-69
2022/01/15 03:09:49;;;;;;;;;;;3.70;97.80;;;;;;5048559;28;20023;-68
2022/01/15 03:12:14;;;;;;;;;;;3.80;97.80;;;;;;5046038;28;19947;-68
2022/01/15 03:14:42;;;;;;;;;;;3.70;97.70;;;;;;5051398;28;19923;-69
2022/01/15 03:17:07;;;;;;;;;;;3.80;97.80;;;;;;5048096;28;19917;-68
2022/01/15 03:19:33;;;;;;;;;;;3.80;97.80;;;;;;5047367;28;20265;-69
2022/01/15 03:21:58;;;;;;;;;;;3.80;97.80;;;;;;5046615;28;19923;-68
2022/01/15 03:24:23;;;;;;;;;;;3.80;97.70;;;;;;5046981;28;19913;-69
2022/01/15 03:26:49;;;;;;;;;;;3.80;97.80;;;;;;5047989;28;20395;-69
2022/01/15 03:29:14;;;;;;;;;;;3.80;97.80;;;;;;5029996;28;19925;-68
2022/01/15 03:31:40;;;;;;;;;;;3.80;98.00;;;;;;5045763;28;20374;-68
2022/01/15 03:34:05;;;;;;;;;;;3.80;97.80;;;;;;5054754;28;20278;-68
2022/01/15 03:36:31;;;;;;;;;;;3.80;97.80;;;;;;5052472;28;19920;-68
2022/01/15 03:38:56;;;;;;;;;;;3.80;97.80;;;;;;5047582;28;19912;-69
2022/01/15 03:41:22;;;;;;;;;;;3.80;97.80;;;;;;5050043;28;19920;-68
2022/01/15 03:43:48;;;;;;;;;;;3.80;97.80;;;;;;5043541;28;19916;-68
2022/01/15 03:46:13;;;;;;;;;;;3.80;97.80;;;;;;5053953;28;20448;-68
2022/01/15 03:48:39;;;;;;;;;;;3.80;97.80;;;;;;5032980;28;19999;-69
2022/01/15 03:51:04;;;;;;;;;;;3.80;97.80;;;;;;5054248;28;20355;-68
2022/01/15 03:53:30;;;;;;;;;;;3.80;97.80;;;;;;5047189;28;20467;-69
2022/01/15 03:55:57;;;;;;;;;;;3.80;97.70;;;;;;5049864;28;20293;-69
2022/01/15 03:58:23;;;;;;;;;;;3.80;97.80;;;;;;5048716;28;20000;-69
2022/01/15 04:00:48;;;;;;;;;;;3.80;97.80;;;;;;5051618;28;19932;-69
2022/01/15 04:03:14;;;;;;;;;;;3.80;97.80;;;;;;5048933;28;19913;-68
2022/01/15 04:05:40;;;;;;;;;;;3.80;97.80;;;;;;5050113;28;20590;-69
2022/01/15 04:08:06;;;;;;;;;;;3.80;97.80;;;;;;5049146;28;19917;-69
2022/01/15 04:10:31;;;;;;;;;;;3.80;97.80;;;;;;5033845;28;20415;-68
2022/01/15 04:12:56;;;;;;;;;;;3.80;97.80;;;;;;5051570;28;20001;-68
2022/01/15 04:15:22;;;;;;;;;;;3.80;97.80;;;;;;5048049;28;19913;-69
2022/01/15 04:17:49;;;;;;;;;;;3.80;97.80;;;;;;5054556;28;19916;-68
2022/01/15 04:20:20;;;;;;;;;;;3.80;97.80;;;;;;5050224;28;19932;-68
2022/01/15 04:22:46;;;;;;;;;;;3.80;97.80;;;;;;5052923;28;19920;-69
2022/01/15 04:25:12;;;;;;;;;;;3.80;97.80;;;;;;5048505;28;19920;-68
2022/01/15 04:27:38;;;;;;;;;;;3.80;97.80;;;;;;5051019;28;19988;-68
2022/01/15 04:30:05;;;;;;;;;;;3.70;97.80;;;;;;5046484;28;20384;-68
2022/01/15 04:32:31;;;;;;;;;;;3.80;97.80;;;;;;5030598;28;19969;-69
2022/01/15 04:34:57;;;;;;;;;;;3.80;97.80;;;;;;5032137;28;19999;-68
2022/01/15 04:37:24;;;;;;;;;;;3.80;97.80;;;;;;5053638;28;19921;-69
2022/01/15 04:39:51;;;;;;;;;;;3.80;97.80;;;;;;5048187;28;20302;-68
2022/01/15 04:42:20;;;;;;;;;;;3.80;97.80;;;;;;5049103;28;19924;-69
2022/01/15 04:44:46;;;;;;;;;;;3.80;97.80;;;;;;5050021;28;19921;-69
2022/01/15 04:47:12;;;;;;;;;;;3.80;97.80;;;;;;5049357;28;19949;-68
2022/01/15 04:49:37;;;;;;;;;;;3.80;97.80;;;;;;5052057;28;20067;-68
2022/01/15 04:52:03;;;;;;;;;;;3.80;97.80;;;;;;5048462;28;19920;-69
2022/01/15 04:54:28;;;;;;;;;;;3.70;97.80;;;;;;5050423;28;19913;-69
2022/01/15 04:56:54;;;;;;;;;;;3.80;97.80;;;;;;5048203;28;19909;-68
2022/01/15 04:59:20;;;;;;;;;;;3.80;97.80;;;;;;5052206;28;20649;-69
2022/01/15 05:01:46;;;;;;;;;;;3.80;97.80;;;;;;5048957;28;20454;-69
2022/01/15 05:04:12;;;;;;;;;;;3.80;97.80;;;;;;5056042;28;20282;-69
2022/01/15 05:06:37;;;;;;;;;;;3.80;97.80;;;;;;5047859;28;19913;-69
2022/01/15 05:09:06;;;;;;;;;;;3.80;97.80;;;;;;5054880;28;19994;-69
2022/01/15 05:11:44;;;;;;;;;;;3.70;97.80;;;;;;5031224;28;19948;-69
2022/01/15 05:14:11;;;;;;;;;;;3.70;97.80;;;;;;5049402;28;19917;-69
2022/01/15 05:16:37;;;;;;;;;;;3.80;97.80;;;;;;5048196;28;20070;-69
2022/01/15 05:19:03;;;;;;;;;;;3.80;97.80;;;;;;5049062;28;20012;-69
2022/01/15 05:21:28;;;;;;;;;;;3.70;97.80;;;;;;5049212;28;20391;-69
2022/01/15 05:23:54;;;;;;;;;;;3.80;97.80;;;;;;5050272;28;19982;-69
2022/01/15 05:26:19;;;;;;;;;;;3.70;97.80;;;;;;5048428;28;19921;-69
2022/01/15 05:28:44;;;;;;;;;;;3.70;97.80;;;;;;5051737;28;19917;-69
2022/01/15 05:31:10;;;;;;;;;;;3.70;97.80;;;;;;5051200;28;20451;-69
2022/01/15 05:33:35;;;;;;;;;;;3.70;97.80;;;;;;5029906;28;19959;-69
2022/01/15 05:36:01;;;;;;;;;;;3.70;97.80;;;;;;5049222;28;19955;-69
2022/01/15 05:38:26;;;;;;;;;;;3.70;97.80;;;;;;5048350;28;19955;-69
2022/01/15 05:40:52;;;;;;;;;;;3.70;97.80;;;;;;5033533;28;19978;-69
2022/01/15 05:43:18;;;;;;;;;;;3.70;97.80;;;;;;5048622;28;19909;-69
2022/01/15 05:45:43;;;;;;;;;;;3.70;97.80;;;;;;5054685;28;19955;-69
2022/01/15 05:48:09;;;;;;;;;;;3.70;97.80;;;;;;5047564;28;20353;-69
2022/01/15 05:50:34;;;;;;;;;;;3.70;97.80;;;;;;5057147;28;19948;-69
2022/01/15 05:53:00;;;;;;;;;;;3.70;97.90;;;;;;5047610;28;19962;-68
2022/01/15 05:55:25;;;;;;;;;;;3.70;97.80;;;;;;5060794;28;19920;-69
2022/01/15 05:57:51;;;;;;;;;;;3.70;97.90;;;;;;5045133;28;19920;-69
2022/01/15 06:00:16;;;;;;;;;;;3.70;97.90;;;;;;5049253;28;20031;-69
2022/01/15 06:02:42;;;;;;;;;;;3.70;97.90;;;;;;5048368;28;19927;-69
2022/01/15 06:05:08;;;;;;;;;;;3.70;97.80;;;;;;5050051;28;19909;-68
2022/01/15 06:07:33;;;;;;;;;;;3.70;97.80;;;;;;5031298;28;19917;-69
2022/01/15 06:09:59;;;;;;;;;;;3.70;97.90;;;;;;5047903;28;19916;-69
2022/01/15 06:12:30;;;;;;;;;;;3.70;97.90;;;;;;5050920;28;20018;-69
2022/01/15 06:14:56;;;;;;;;;;;3.70;97.90;;;;;;5046553;28;19913;-69
2022/01/15 06:17:21;;;;;;;;;;;3.70;97.90;;;;;;5061407;28;19920;-69
2022/01/15 06:19:47;;;;;;;;;;;3.70;97.90;;;;;;5046653;28;19916;-69
2022/01/15 06:22:12;;;;;;;;;;;3.70;97.90;;;;;;5049059;28;20286;-68
2022/01/15 06:24:38;;;;;;;;;;;3.70;97.90;;;;;;5030970;28;19948;-69
2022/01/15 06:27:03;;;;;;;;;;;3.70;97.90;;;;;;5051428;28;19940;-69
2022/01/15 06:29:29;;;;;;;;;;;3.70;97.90;;;;;;5047415;28;19921;-69
2022/01/15 06:31:54;;;;;;;;;;;3.70;97.90;;;;;;5048476;28;19924;-69
2022/01/15 06:34:20;;;;;;;;;;;3.70;97.90;;;;;;5043726;28;20665;-69
2022/01/15 06:36:46;;;;;;;;;;;3.60;97.90;;;;;;5049650;28;20556;-69
2022/01/15 06:39:11;;;;;;;;;;;3.60;97.90;;;;;;5029788;28;19919;-69
2022/01/15 06:41:37;;;;;;;;;;;3.60;97.90;;;;;;5055143;28;19912;-69
2022/01/15 06:44:02;;;;;;;;;;;3.60;97.90;;;;;;5048538;28;19913;-69
2022/01/15 06:46:28;;;;;;;;;;;3.60;97.90;;;;;;5046130;28;19923;-68
2022/01/15 06:48:53;;;;;;;;;;;3.60;97.90;;;;;;5046931;28;19966;-69
2022/01/15 06:51:19;;;;;;;;;;;3.60;97.90;;;;;;5047677;28;19920;-68
2022/01/15 06:53:44;;;;;;;;;;;3.60;97.90;;;;;;5049143;28;19920;-69
2022/01/15 06:56:10;;;;;;;;;;;3.60;97.80;;;;;;5043981;28;19913;-69
2022/01/15 06:58:35;;;;;;;;;;;3.60;97.90;;;;;;5055291;28;19924;-68
2022/01/15 07:01:01;;;;;;;;;;;3.60;97.90;;;;;;5029607;28;20370;-69
2022/01/15 07:03:27;;;;;;;;;;;3.60;97.90;;;;;;5040264;28;19909;-69
2022/01/15 07:05:52;;;;;;;;;;;3.60;97.90;;;;;;5045198;28;19913;-69
2022/01/15 07:08:18;;;;;;;;;;;3.60;97.90;;;;;;5049291;28;19909;-68
2022/01/15 07:10:43;;;;;;;;;;;3.60;97.90;;;;;;5034245;28;19913;-68
2022/01/15 07:13:09;;;;;;;;;;;3.60;97.90;;;;;;5053781;28;19957;-69
2022/01/15 07:15:35;;;;;;;;;;;3.60;97.90;;;;;;5052758;28;19923;-69
2022/01/15 07:18:01;;;;;;;;;;;3.60;97.90;;;;;;5052426;28;20278;-69
2022/01/15 07:20:27;;;;;;;;;;;3.60;97.90;;;;;;5049606;28;20645;-68
2022/01/15 07:22:53;;;;;;;;;;;3.60;97.90;;;;;;5051893;28;20336;-68
2022/01/15 07:25:18;;;;;;;;;;;3.60;97.90;;;;;;5052058;28;19973;-68
2022/01/15 07:27:44;;;;;;;;;;;3.60;97.90;;;;;;5050420;28;19943;-69
2022/01/15 07:30:10;;;;;;;;;;;3.60;97.90;;;;;;5040539;28;19971;-69
2022/01/15 07:32:36;;;;;;;;;;;3.60;97.90;;;;;;5049669;28;19917;-69
2022/01/15 07:35:02;;;;;;;;;;;3.60;97.90;;;;;;5057483;28;20482;-68
2022/01/15 07:37:27;;;;;;;;;;;3.60;97.90;;;;;;5050488;28;19909;-68
2022/01/15 07:39:53;;;;;;;;;;;3.60;97.90;;;;;;5054799;28;19963;-68
2022/01/15 07:42:19;;;;;;;;;;;3.60;97.90;;;;;;5049657;28;19916;-68
2022/01/15 07:44:44;;;;;;;;;;;3.60;97.90;;;;;;5054183;28;20008;-69
2022/01/15 07:47:12;;;;;;;;;;;3.60;97.90;;;;;;5047782;28;19927;-69
2022/01/15 07:49:37;;;;;;;;;;;3.50;97.90;;;;;;5052793;28;19920;-68
2022/01/15 07:52:03;;;;;;;;;;;3.60;97.90;;;;;;5046229;28;19913;-68
2022/01/15 07:54:28;;;;;;;;;;;3.50;97.90;;;;;;5049655;28;19939;-69
2022/01/15 07:56:55;;;;;;;;;;;3.60;97.90;;;;;;5050204;28;19946;-69
2022/01/15 07:59:23;;;;;;;;;;;3.50;97.90;;;;;;5047028;28;19912;-68
2022/01/15 08:01:49;;;;;;;;;;;3.60;97.90;;;;;;5050082;28;19955;-69
2022/01/15 08:04:14;;;;;;;;;;;3.50;97.90;;;;;;5047991;28;19948;-69
2022/01/15 08:06:41;;;;;;;;;;;3.60;97.90;;;;;;5054135;28;19999;-69
2022/01/15 08:09:07;;;;;;;;;;;3.50;97.90;;;;;;5048203;28;20620;-69
2022/01/15 08:11:33;;;;;;;;;;;3.60;97.90;;;;;;5049732;28;19919;-68
2022/01/15 08:13:58;;;;;;;;;;;3.60;97.90;;;;;;5046962;28;19913;-68
2022/01/15 08:16:24;;;;;;;;;;;3.60;97.90;;;;;;5053777;28;20414;-68
2022/01/15 08:18:49;;;;;;;;;;;3.50;97.90;;;;;;5045488;28;19917;-68
2022/01/15 08:21:15;;;;;;;;;;;3.60;97.90;;;;;;5051772;28;19916;-68
2022/01/15 08:23:40;;;;;;;;;;;3.60;97.90;;;;;;5060595;28;19920;-69
2022/01/15 08:26:06;;;;;;;;;;;3.50;97.80;;;;;;5050981;28;20409;-69
2022/01/15 08:28:31;;;;;;;;;;;3.50;97.90;;;;;;5044527;28;19953;-68
2022/01/15 08:30:57;;;;;;;;;;;3.60;97.90;;;;;;5050519;28;20640;-69
2022/01/15 08:33:22;;;;;;;;;;;3.60;97.90;;;;;;5028631;28;20366;-69
2022/01/15 08:35:48;;;;;;;;;;;3.60;98.20;;;;;;5051740;28;20369;-69
2022/01/15 08:38:13;;;;;;;;;;;3.60;97.80;;;;;;5050926;28;19912;-69
2022/01/15 08:40:39;;;;;;;;;;;3.60;97.90;;;;;;5048151;28;19927;-68
2022/01/15 08:43:04;;;;;;;;;;;3.60;97.90;;;;;;5049819;28;20417;-69
2022/01/15 08:45:30;;;;;;;;;;;3.60;97.90;;;;;;5045554;28;19924;-68
2022/01/15 08:47:56;;;;;;;;;;;3.60;97.90;;;;;;5050473;28;19913;-68
2022/01/15 08:50:21;;;;;;;;;;;3.60;97.90;;;;;;5046357;28;20341;-68
2022/01/15 08:52:47;;;;;;;;;;;3.60;97.90;;;;;;5047512;28;19908;-68
2022/01/15 08:55:13;;;;;;;;;;;3.60;97.80;;;;;;5046805;28;19920;-69
2022/01/15 08:57:39;;;;;;;;;;;3.60;97.90;;;;;;5051238;28;20253;-69
2022/01/15 09:00:06;;;;;;;;;;;3.60;97.80;;;;;;5045446;28;19916;-69
2022/01/15 09:02:32;;;;;;;;;;;3.60;97.80;;;;;;5046134;28;19994;-69
2022/01/15 09:04:57;;;;;;;;;;;3.60;97.80;;;;;;5048327;28;20439;-69
2022/01/15 09:07:23;;;;;;;;;;;3.60;97.80;;;;;;5049335;28;19924;-68
2022/01/15 09:09:48;;;;;;;;;;;3.60;97.80;;;;;;5048754;28;19935;-68
2022/01/15 09:12:15;;;;;;;;;;;3.60;97.80;;;;;;5048871;28;20389;-69
2022/01/15 09:14:41;;;;;;;;;;;3.60;97.80;;;;;;5031995;28;19923;-69
2022/01/15 09:17:06;;;;;;;;;;;3.60;97.80;;;;;;5046413;28;19909;-69
2022/01/15 09:19:32;;;;;;;;;;;3.60;97.80;;;;;;5050073;28;19959;-69
2022/01/15 09:21:58;;;;;;;;;;;3.60;97.80;;;;;;5026399;28;19924;-69
2022/01/15 09:24:23;;;;;;;;;;;3.70;97.80;;;;;;5051434;28;19916;-69
2022/01/15 09:32:18;;;;;;;;;;;3.70;97.80;;;;;;5046504;28;19920;-69
2022/01/15 09:34:44;;;;;;;;;;;3.70;97.80;;;;;;5047052;28;19909;-69
2022/01/15 09:37:09;;;;;;;;;;;3.70;97.80;;;;;;5047577;28;19997;-69
2022/01/15 09:39:35;;;;;;;;;;;3.70;97.80;;;;;;5049944;28;19990;-68
2022/01/15 09:42:01;;;;;;;;;;;3.70;97.80;;;;;;5044525;28;19925;-69
2022/01/15 09:44:27;;;;;;;;;;;3.70;97.80;;;;;;5050448;28;19970;-69
2022/01/15 09:46:52;;;;;;;;;;;3.70;97.80;;;;;;5045855;28;19917;-69
2022/01/15 09:49:22;;;;;;;;;;;3.70;97.80;;;;;;5048560;28;19915;-68
2022/01/15 09:51:47;;;;;;;;;;;3.70;97.80;;;;;;5048550;28;19920;-69
2022/01/15 09:54:14;;;;;;;;;;;3.80;97.80;;;;;;5049691;28;19917;-68
2022/01/15 09:56:39;;;;;;;;;;;3.80;97.70;;;;;;5061908;28;19924;-69
2022/01/15 09:59:05;;;;;;;;;;;3.80;97.70;;;;;;5031929;28;19916;-68
2022/01/15 10:01:31;;;;;;;;;;;3.80;97.70;;;;;;5047084;28;19982;-68
2022/01/15 10:03:57;;;;;;;;;;;3.80;97.70;;;;;;5029350;28;19925;-68
2022/01/15 10:06:23;;;;;;;;;;;3.80;97.70;;;;;;5054545;28;19938;-68
2022/01/15 10:08:59;;;;;;;;;;;3.80;97.70;;;;;;5045503;28;19917;-68
2022/01/15 10:11:44;;;;;;;;;;;3.80;97.70;;;;;;5051932;28;19920;-69
2022/01/15 10:14:25;;;;;;;;;;;3.80;97.70;;;;;;5043002;28;19920;-69
2022/01/15 10:16:51;;;;;;;;;;;3.80;98.00;;;;;;5052598;28;20701;-68
2022/01/15 10:19:25;;;;;;;;;;;3.80;97.70;;;;;;5044866;28;19921;-69
2022/01/15 10:22:07;;;;;;;;;;;3.80;97.70;;;;;;5052578;28;19940;-69
2022/01/15 10:24:33;;;;;;;;;;;3.90;97.70;;;;;;5042338;28;19991;-68
2022/01/15 10:27:15;;;;;;;;;;;3.90;97.70;;;;;;5043306;28;19912;-68
2022/01/15 10:29:41;;;;;;;;;;;3.90;97.70;;;;;;5026289;28;20050;-68
2022/01/15 10:32:12;;;;;;;;;;;3.90;97.70;;;;;;5046408;28;20389;-68
2022/01/15 10:34:37;;;;;;;;;;;3.90;97.70;;;;;;5045598;28;19924;-68
2022/01/15 10:37:07;;;;;;;;;;;3.90;97.70;;;;;;5048539;28;19908;-68
2022/01/15 10:39:33;;;;;;;;;;;3.90;97.70;;;;;;5045411;28;19996;-68
2022/01/15 10:41:58;;;;;;;;;;;3.90;97.70;;;;;;5030154;28;20024;-68
2022/01/15 10:44:46;;;;;;;;;;;3.90;97.70;;;;;;5049093;28;19913;-69
2022/01/15 10:47:12;;;;;;;;;;;4.00;97.70;;;;;;5050678;28;19921;-69
2022/01/15 10:49:39;;;;;;;;;;;4.00;97.70;;;;;;5051187;28;19913;-68
2022/01/15 10:52:07;;;;;;;;;;;4.00;97.70;;;;;;5054224;28;19928;-69
2022/01/15 10:54:34;;;;;;;;;;;4.00;97.70;;;;;;5050066;28;19917;-68
2022/01/15 10:57:07;;;;;;;;;;;4.00;97.70;;;;;;5051913;28;19916;-69
2022/01/15 10:59:32;;;;;;;;;;;4.00;97.70;;;;;;5047406;28;19916;-68
2022/01/15 11:02:17;;;;;;;;;;;4.00;97.70;;;;;;5034663;28;20449;-69
2022/01/15 11:04:43;;;;;;;;;;;4.00;97.70;;;;;;5055854;28;19920;-69
2022/01/15 11:07:12;;;;;;;;;;;4.00;97.70;;;;;;5053314;28;19909;-68
2022/01/15 11:09:37;;;;;;;;;;;4.00;97.70;;;;;;5050007;28;20686;-68
2022/01/15 11:12:04;;;;;;;;;;;4.10;97.70;;;;;;5038304;28;20015;-68
2022/01/15 11:14:30;;;;;;;;;;;4.10;97.70;;;;;;5048815;28;19916;-68
2022/01/15 11:16:57;;;;;;;;;;;4.10;97.60;;;;;;5049606;28;19924;-68
2022/01/15 11:19:23;;;;;;;;;;;4.10;97.60;;;;;;5053231;28;20417;-68
2022/01/15 11:21:49;;;;;;;;;;;4.10;97.60;;;;;;5028734;28;20408;-69
2022/01/15 11:24:17;;;;;;;;;;;4.10;97.60;;;;;;5050338;28;19917;-68
2022/01/15 11:26:43;;;;;;;;;;;4.10;97.60;;;;;;5047692;28;20624;-69
2022/01/15 11:29:09;;;;;;;;;;;4.20;97.60;;;;;;5030897;28;20313;-69
2022/01/15 11:31:35;;;;;;;;;;;4.20;97.60;;;;;;5050807;28;19920;-69
2022/01/15 11:34:01;;;;;;;;;;;4.20;97.60;;;;;;5052917;28;19920;-68
2022/01/15 11:36:26;;;;;;;;;;;4.20;97.60;;;;;;5054234;28;19921;-68
2022/01/15 11:38:52;;;;;;;;;;;4.20;97.60;;;;;;5050704;28;19920;-68
2022/01/15 11:41:27;;;;;;;;;;;4.20;97.60;;;;;;5050826;28;20010;-68
2022/01/15 11:44:02;;;;;;;;;;;4.20;97.60;;;;;;5050454;28;20498;-69
2022/01/15 11:46:40;;;;;;;;;;;4.20;97.60;;;;;;5046394;28;20122;-68
2022/01/15 11:49:24;;;;;;;;;;;4.20;97.60;;;;;;5051319;28;20150;-69
2022/01/15 11:51:50;;;;;;;;;;;4.30;97.60;;;;;;5044756;28;19978;-68
2022/01/15 11:54:16;;;;;;;;;;;4.30;97.60;;;;;;5049586;28;19921;-69
2022/01/15 11:56:42;;;;;;;;;;;4.30;97.60;;;;;;5045673;28;19920;-68
2022/01/15 11:59:23;;;;;;;;;;;4.30;97.60;;;;;;5049897;28;20538;-68
2022/01/15 12:01:48;;;;;;;;;;;4.30;97.60;;;;;;5049483;28;20350;-68
2022/01/15 12:04:26;;;;;;;;;;;4.30;97.60;;;;;;5049147;28;19927;-68
2022/01/15 12:07:07;;;;;;;;;;;4.30;97.60;;;;;;5051145;28;19919;-68
2022/01/15 12:09:32;;;;;;;;;;;4.30;97.60;;;;;;5048945;28;19927;-69
2022/01/15 12:11:58;;;;;;;;;;;4.40;97.60;;;;;;5049520;28;19917;-68
2022/01/15 12:14:42;;;;;;;;;;;4.30;97.50;;;;;;5048709;28;19952;-68
2022/01/15 12:17:24;;;;;;;;;;;4.40;97.50;;;;;;5049186;28;19917;-69
2022/01/15 12:19:50;;;;;;;;;;;4.40;97.50;;;;;;5048217;28;19913;-68
2022/01/15 12:22:34;;;;;;;;;;;4.40;97.50;;;;;;5046256;28;19919;-69
2022/01/15 12:25:01;;;;;;;;;;;4.40;97.50;;;;;;5047386;28;20304;-68
2022/01/15 12:27:27;;;;;;;;;;;4.40;97.50;;;;;;5036849;28;19916;-68
2022/01/15 12:30:18;;;;;;;;;;;4.40;97.50;;;;;;5051371;28;19913;-68
2022/01/15 12:32:45;;;;;;;;;;;4.40;97.50;;;;;;5045097;28;20003;-68
2022/01/15 12:35:16;;;;;;;;;;;4.50;97.60;;;;;;5049863;28;19943;-68
2022/01/15 12:37:53;;;;;;;;;;;4.40;97.50;;;;;;5048975;28;19919;-68
2022/01/15 12:40:22;;;;;;;;;;;4.40;97.50;;;;;;5051542;28;20281;-68
2022/01/15 12:43:17;;;;;;;;;;;4.40;97.50;;;;;;5050296;28;19912;-69
2022/01/15 12:45:44;;;;;;;;;;;4.40;97.50;;;;;;5032455;28;19971;-68
2022/01/15 12:48:13;;;;;;;;;;;4.50;97.50;;;;;;5047274;28;19913;-69
2022/01/15 12:50:43;;;;;;;;;;;4.50;97.50;;;;;;5048834;28;19932;-69
2022/01/15 12:53:09;;;;;;;;;;;4.50;97.50;;;;;;5049157;28;19923;-68
2022/01/15 12:55:35;;;;;;;;;;;4.50;97.50;;;;;;5047567;28;19918;-69
2022/01/15 12:58:02;;;;;;;;;;;4.50;97.50;;;;;;5051142;28;19963;-68
2022/01/15 13:00:29;;;;;;;;;;;4.50;97.50;;;;;;5050442;28;19923;-69
2022/01/15 13:02:56;;;;;;;;;;;4.50;97.50;;;;;;5050996;28;19920;-69
2022/01/15 13:05:23;;;;;;;;;;;4.60;97.50;;;;;;5045145;28;19921;-69
2022/01/15 13:07:54;;;;;;;;;;;4.60;97.50;;;;;;5049499;28;20348;-68
2022/01/15 13:10:27;;;;;;;;;;;4.60;97.50;;;;;;5044621;28;20282;-68
2022/01/15 13:12:54;;;;;;;;;;;4.60;97.50;;;;;;5031793;28;19924;-68
2022/01/15 13:15:29;;;;;;;;;;;4.60;97.70;;;;;;5045761;28;19920;-68
2022/01/15 13:17:55;;;;;;;;;;;4.60;97.50;;;;;;5049059;28;19913;-68
2022/01/15 13:20:31;;;;;;;;;;;4.60;97.50;;;;;;5025102;28;19917;-69
2022/01/15 13:22:57;;;;;;;;;;;4.60;97.50;;;;;;5049058;28;19920;-68
2022/01/15 13:25:23;;;;;;;;;;;4.60;97.50;;;;;;5065106;28;20246;-68
2022/01/15 13:27:49;;;;;;;;;;;4.60;97.40;;;;;;5047314;28;19920;-69
2022/01/15 13:30:15;;;;;;;;;;;4.60;97.50;;;;;;5045078;28;19940;-69
2022/01/15 13:33:10;;;;;;;;;;;4.60;97.50;;;;;;5049743;28;20404;-69
2022/01/15 13:35:40;;;;;;;;;;;4.60;97.50;;;;;;5038894;28;19960;-68
2022/01/15 13:38:07;;;;;;;;;;;4.60;97.50;;;;;;5040399;28;19917;-68
2022/01/15 13:40:46;;;;;;;;;;;4.70;97.50;;;;;;5044312;28;19917;-68
2022/01/15 13:43:13;;;;;;;;;;;4.60;97.50;;;;;;5045230;28;19920;-69
2022/01/15 13:45:40;;;;;;;;;;;4.60;97.50;;;;;;5045136;28;19975;-68
2022/01/15 13:48:10;;;;;;;;;;;4.70;97.50;;;;;;5047986;28;20281;-68
2022/01/15 13:53:30;;;;;;;;;;;4.70;97.50;;;;;;5047373;28;19924;-68
2022/01/15 13:56:28;;;;;;;;;;;4.70;97.50;;;;;;5047480;28;20514;-68
2022/01/15 13:58:55;;;;;;;;;;;4.70;97.50;;;;;;5003334;28;20623;-69
2022/01/15 14:01:32;;;;;;;;;;;4.70;97.60;;;;;;5047285;28;19917;-69
2022/01/15 14:03:59;;;;;;;;;;;4.70;97.50;;;;;;5031292;28;20314;-69
2022/01/15 14:06:25;;;;;;;;;;;4.60;97.50;;;;;;5045926;28;19913;-68
2022/01/15 14:09:00;;;;;;;;;;;4.70;97.60;;;;;;5045673;28;19917;-69
2022/01/15 14:11:27;;;;;;;;;;;4.70;97.70;;;;;;5047365;28;19921;-69
2022/01/15 14:14:03;;;;;;;;;;;4.80;97.60;;;;;;5050376;28;20342;-69
2022/01/15 14:16:29;;;;;;;;;;;4.70;97.70;;;;;;5047163;28;20480;-69
2022/01/15 14:21:41;;;;;;;;;;;4.70;97.60;;;;;;5046137;28;20553;-69
2022/01/15 14:24:17;;;;;;;;;;;4.70;97.60;;;;;;5027169;28;20354;-69
2022/01/15 14:26:48;;;;;;;;;;;4.70;97.70;;;;;;5047224;28;19913;-69
2022/01/15 14:29:13;;;;;;;;;;;4.70;97.60;;;;;;5044727;28;19920;-69
2022/01/15 14:31:39;;;;;;;;;;;4.70;97.60;;;;;;5050056;28;19924;-69
2022/01/15 14:34:05;;;;;;;;;;;4.70;97.60;;;;;;5063110;28;19926;-69
2022/01/15 14:36:30;;;;;;;;;;;4.70;97.70;;;;;;5033980;28;19936;-69
2022/01/15 14:39:03;;;;;;;;;;;4.70;97.60;;;;;;5046900;28;19944;-69
2022/01/15 14:41:28;;;;;;;;;;;4.70;97.60;;;;;;5047571;28;19920;-69
2022/01/15 14:43:54;;;;;;;;;;;4.70;97.80;;;;;;5047245;28;20373;-69
2022/01/15 14:46:19;;;;;;;;;;;4.70;97.70;;;;;;5048081;28;20294;-69
2022/01/15 14:48:45;;;;;;;;;;;4.70;97.70;;;;;;5057527;28;19922;-69
2022/01/15 14:51:16;;;;;;;;;;;4.70;97.70;;;;;;5043068;28;19952;-69
2022/01/15 14:53:42;;;;;;;;;;;4.70;97.70;;;;;;5042359;28;19943;-69
2022/01/15 14:56:07;;;;;;;;;;;4.70;97.70;;;;;;5043998;28;20057;-69
2022/01/15 14:58:33;;;;;;;;;;;4.70;97.70;;;;;;5042166;28;19913;-69
2022/01/15 15:00:58;;;;;;;;;;;4.70;97.70;;;;;;5047864;28;20426;-69